Mountain Center, California
Current Conditions -  °F | °C
As of 11:53 PM on Saturday 22 Nov 2014 (Local Time) from KPSP Reporting Station
Clear Clear  
Wind Chill: 58°   Ceiling: Unl
Heat Index: 58°   Visibility: 10mi
Dew Point: 40°   Wind: 3mph
Humidity: 51%   Direction: 280°W
Pressure: 29.92"   Gusts: NA
Location:  33.7°N, 116.73°W
Report Text: KPSP 230753Z AUTO 28003KT 10SM CLR 14/04 A2992 RMK AO2 SLP132 T01440044 402560089 TSNO
Loading
Personal Weather Stations






























Interactive Weather Map New forecast layout! Learn more

10-Day Weather Forecast

Advertisements
Track Severe Weather on mobile